Terminal Aerodrome Forecast
Issued by NWS

Home | Current Version | Previous Version | Text Only | Print | Product List | Glossary On
Versions: 1 2 3 4 5 6 7 8 9 10 11 12 13 14 15 16
000
FTUS46 KSGX 252300
TAFSNA
TAF
KSNA 252334Z 2600/2624 20008KT P6SM BKN150
     FM260100 VRB04KT P6SM BKN150
     FM261600 20008KT P6SM VCSH BKN070 BKN100
     FM262000 VRB06KT P6SM VCSH BKN050 OVC080=

USA.gov is the U.S. government's official web portal to all federal, state and local government web resources and services.